Capitol Logistics 579




RJSS
Sendai Airport
Sendai, JP
RJAA
Tokyo-Narita International Airport
Tokyo, JP

Activity Log

Date Flight Route Aircraft Duration
No Flights Yet

Route Details

Aircraft Information
Group: Trans-Pacific Ops
Types: B744,B763,MD11
Route Data
Demand: V
Distance: 145nm
Duration: 1h 05m
Recm'd Route: IXE8 IXE R211 SWAMP SWAMPN
Origin Wx: RJSS 242100Z 30003KT 5000 BR FEW002 BKN004 15/13 Q1015
Dest. Wx: RJAA 242030Z AUTO 17004KT 9999 NCD 17/17 Q1015 NOSIG RMK A2998
Notes:

Financial History
Total Freight: 0lbs
Average Load: 0lbs/flt
Fuel Used: 0lbs
Avg. Fuel Used: 0lbs/flt
Fuel Expense: $0
Avg. Fuel Expense: $0
Avg. Fuel Cost: $0/lbs
Total Gross Income: $0
Pilot Pay: $0
Total Expenses: $0
Total Revenue: $0
Average Revenue: $0